sensor_id;sensor_type;location;lat;lon;timestamp;temperature;humidity
42877;DHT22;42341;40.498;72.818;2023-02-04T00:01:49;6.00;99.90
42877;DHT22;42341;40.498;72.818;2023-02-04T00:04:15;6.00;99.90
42877;DHT22;42341;40.498;72.818;2023-02-04T00:06:41;5.90;99.90
42877;DHT22;42341;40.498;72.818;2023-02-04T00:09:07;5.90;99.90
42877;DHT22;42341;40.498;72.818;2023-02-04T00:11:33;5.90;99.90
42877;DHT22;42341;40.498;72.818;2023-02-04T00:13:59;6.00;99.90
42877;DHT22;42341;40.498;72.818;2023-02-04T00:16:25;6.10;99.90
42877;DHT22;42341;40.498;72.818;2023-02-04T00:18:51;6.10;99.90
42877;DHT22;42341;40.498;72.818;2023-02-04T00:21:17;6.20;99.90
42877;DHT22;42341;40.498;72.818;2023-02-04T00:23:43;6.10;99.90
42877;DHT22;42341;40.498;72.818;2023-02-04T00:26:08;6.10;99.90
42877;DHT22;42341;40.498;72.818;2023-02-04T00:28:34;6.00;99.90
42877;DHT22;42341;40.498;72.818;2023-02-04T00:31:00;6.00;99.90
42877;DHT22;42341;40.498;72.818;2023-02-04T00:33:26;5.90;99.90
42877;DHT22;42341;40.498;72.818;2023-02-04T00:35:53;5.80;99.90
42877;DHT22;42341;40.498;72.818;2023-02-04T00:38:19;5.70;99.90
42877;DHT22;42341;40.498;72.818;2023-02-04T00:40:45;5.60;99.90
42877;DHT22;42341;40.498;72.818;2023-02-04T00:43:11;5.50;99.90
42877;DHT22;42341;40.498;72.818;2023-02-04T00:45:36;5.50;99.90
42877;DHT22;42341;40.498;72.818;2023-02-04T00:48:02;5.60;99.90
42877;DHT22;42341;40.498;72.818;2023-02-04T00:50:28;5.50;99.90
42877;DHT22;42341;40.498;72.818;2023-02-04T00:52:54;5.40;99.90
42877;DHT22;42341;40.498;72.818;2023-02-04T00:55:20;5.40;99.90
42877;DHT22;42341;40.498;72.818;2023-02-04T00:57:46;5.40;99.90
42877;DHT22;42341;40.498;72.818;2023-02-04T01:00:13;5.50;99.90
42877;DHT22;42341;40.498;72.818;2023-02-04T01:02:39;5.50;99.90
42877;DHT22;42341;40.498;72.818;2023-02-04T01:05:08;5.50;99.90
42877;DHT22;42341;40.498;72.818;2023-02-04T01:07:35;5.50;99.90
42877;DHT22;42341;40.498;72.818;2023-02-04T01:10:01;5.40;99.90
42877;DHT22;42341;40.498;72.818;2023-02-04T01:12:27;5.30;99.90
42877;DHT22;42341;40.498;72.818;2023-02-04T01:14:54;5.30;99.90
42877;DHT22;42341;40.498;72.818;2023-02-04T01:17:20;5.30;99.90
42877;DHT22;42341;40.498;72.818;2023-02-04T01:19:46;5.20;99.90
42877;DHT22;42341;40.498;72.818;2023-02-04T01:22:12;5.10;99.90
42877;DHT22;42341;40.498;72.818;2023-02-04T01:24:38;5.10;99.90
42877;DHT22;42341;40.498;72.818;2023-02-04T01:27:04;5.10;99.90
42877;DHT22;42341;40.498;72.818;2023-02-04T01:29:30;5.10;99.90
42877;DHT22;42341;40.498;72.818;2023-02-04T01:31:56;5.20;99.90
42877;DHT22;42341;40.498;72.818;2023-02-04T01:34:21;5.20;99.90
42877;DHT22;42341;40.498;72.818;2023-02-04T01:36:47;5.20;99.90
42877;DHT22;42341;40.498;72.818;2023-02-04T01:39:13;5.20;99.90
42877;DHT22;42341;40.498;72.818;2023-02-04T01:41:40;5.20;99.90
42877;DHT22;42341;40.498;72.818;2023-02-04T01:44:06;5.20;99.90
42877;DHT22;42341;40.498;72.818;2023-02-04T01:46:33;5.20;99.90
42877;DHT22;42341;40.498;72.818;2023-02-04T01:49:03;5.20;99.90
42877;DHT22;42341;40.498;72.818;2023-02-04T01:51:29;5.20;99.90
42877;DHT22;42341;40.498;72.818;2023-02-04T01:54:00;5.20;99.90
42877;DHT22;42341;40.498;72.818;2023-02-04T01:56:28;5.20;99.90
42877;DHT22;42341;40.498;72.818;2023-02-04T01:58:55;5.10;99.90
42877;DHT22;42341;40.498;72.818;2023-02-04T02:01:39;5.00;99.90
42877;DHT22;42341;40.498;72.818;2023-02-04T02:04:11;5.00;99.90
42877;DHT22;42341;40.498;72.818;2023-02-04T02:06:40;5.00;99.90
42877;DHT22;42341;40.498;72.818;2023-02-04T02:09:07;5.00;99.90
42877;DHT22;42341;40.498;72.818;2023-02-04T02:11:33;5.00;99.90
42877;DHT22;42341;40.498;72.818;2023-02-04T02:13:59;5.00;99.90
42877;DHT22;42341;40.498;72.818;2023-02-04T02:16:25;5.10;99.90
42877;DHT22;42341;40.498;72.818;2023-02-04T02:18:51;5.10;99.90
42877;DHT22;42341;40.498;72.818;2023-02-04T02:21:43;5.20;99.90
42877;DHT22;42341;40.498;72.818;2023-02-04T02:24:33;5.10;99.90
42877;DHT22;42341;40.498;72.818;2023-02-04T02:27:06;5.20;99.90
42877;DHT22;42341;40.498;72.818;2023-02-04T02:29:33;5.30;99.90
42877;DHT22;42341;40.498;72.818;2023-02-04T02:31:59;5.30;99.90
42877;DHT22;42341;40.498;72.818;2023-02-04T02:34:26;5.30;99.90
42877;DHT22;42341;40.498;72.818;2023-02-04T02:36:53;5.40;99.90
42877;DHT22;42341;40.498;72.818;2023-02-04T02:39:20;5.30;99.90
42877;DHT22;42341;40.498;72.818;2023-02-04T02:41:46;5.30;99.90
42877;DHT22;42341;40.498;72.818;2023-02-04T02:44:13;5.40;99.90
42877;DHT22;42341;40.498;72.818;2023-02-04T02:46:40;5.40;99.90
42877;DHT22;42341;40.498;72.818;2023-02-04T02:49:09;5.40;99.90
42877;DHT22;42341;40.498;72.818;2023-02-04T02:51:37;5.50;99.90
42877;DHT22;42341;40.498;72.818;2023-02-04T02:54:03;5.40;99.90
42877;DHT22;42341;40.498;72.818;2023-02-04T02:56:29;5.50;99.90
42877;DHT22;42341;40.498;72.818;2023-02-04T02:58:55;5.60;99.90
42877;DHT22;42341;40.498;72.818;2023-02-04T03:01:21;5.70;99.90
42877;DHT22;42341;40.498;72.818;2023-02-04T03:03:49;5.70;99.90
42877;DHT22;42341;40.498;72.818;2023-02-04T03:06:22;5.80;99.90
42877;DHT22;42341;40.498;72.818;2023-02-04T03:08:51;5.90;99.90
42877;DHT22;42341;40.498;72.818;2023-02-04T03:11:19;5.90;99.90
42877;DHT22;42341;40.498;72.818;2023-02-04T03:13:45;5.90;99.90
42877;DHT22;42341;40.498;72.818;2023-02-04T03:16:12;5.90;99.90
42877;DHT22;42341;40.498;72.818;2023-02-04T03:18:38;5.80;99.90
42877;DHT22;42341;40.498;72.818;2023-02-04T03:21:04;5.80;99.90
42877;DHT22;42341;40.498;72.818;2023-02-04T03:23:32;6.00;99.90
42877;DHT22;42341;40.498;72.818;2023-02-04T03:26:00;6.10;99.90
42877;DHT22;42341;40.498;72.818;2023-02-04T03:28:26;6.10;99.90
42877;DHT22;42341;40.498;72.818;2023-02-04T03:30:52;6.20;99.90
42877;DHT22;42341;40.498;72.818;2023-02-04T03:33:27;6.20;99.90
42877;DHT22;42341;40.498;72.818;2023-02-04T03:35:56;6.20;99.90
42877;DHT22;42341;40.498;72.818;2023-02-04T03:38:22;6.30;99.90
42877;DHT22;42341;40.498;72.818;2023-02-04T03:40:48;6.20;99.90
42877;DHT22;42341;40.498;72.818;2023-02-04T03:43:14;6.20;99.90
42877;DHT22;42341;40.498;72.818;2023-02-04T03:45:40;6.20;99.90
42877;DHT22;42341;40.498;72.818;2023-02-04T03:48:06;6.40;99.90
42877;DHT22;42341;40.498;72.818;2023-02-04T03:50:32;6.40;99.90
42877;DHT22;42341;40.498;72.818;2023-02-04T03:52:58;6.70;99.90
42877;DHT22;42341;40.498;72.818;2023-02-04T03:55:24;7.00;99.90
42877;DHT22;42341;40.498;72.818;2023-02-04T03:57:51;7.10;99.90
42877;DHT22;42341;40.498;72.818;2023-02-04T04:00:17;7.30;99.90
42877;DHT22;42341;40.498;72.818;2023-02-04T04:02:43;7.40;99.90
42877;DHT22;42341;40.498;72.818;2023-02-04T04:05:09;7.50;99.90
42877;DHT22;42341;40.498;72.818;2023-02-04T04:07:36;7.60;99.90
42877;DHT22;42341;40.498;72.818;2023-02-04T04:10:02;7.60;99.90
42877;DHT22;42341;40.498;72.818;2023-02-04T04:12:28;7.80;99.90
42877;DHT22;42341;40.498;72.818;2023-02-04T04:14:54;8.00;99.90
42877;DHT22;42341;40.498;72.818;2023-02-04T04:17:20;8.30;99.90
42877;DHT22;42341;40.498;72.818;2023-02-04T04:19:46;8.70;99.90
42877;DHT22;42341;40.498;72.818;2023-02-04T04:22:14;9.10;99.50
42877;DHT22;42341;40.498;72.818;2023-02-04T04:24:40;9.50;98.70
42877;DHT22;42341;40.498;72.818;2023-02-04T04:27:07;9.80;97.40
42877;DHT22;42341;40.498;72.818;2023-02-04T04:29:33;10.10;97.10
42877;DHT22;42341;40.498;72.818;2023-02-04T04:31:59;10.40;97.30
42877;DHT22;42341;40.498;72.818;2023-02-04T04:34:24;10.80;96.30
42877;DHT22;42341;40.498;72.818;2023-02-04T04:36:50;11.10;96.90
42877;DHT22;42341;40.498;72.818;2023-02-04T04:39:16;11.40;96.30
42877;DHT22;42341;40.498;72.818;2023-02-04T04:41:42;11.90;94.70
42877;DHT22;42341;40.498;72.818;2023-02-04T04:44:08;12.50;95.10
42877;DHT22;42341;40.498;72.818;2023-02-04T04:46:34;13.60;93.90
42877;DHT22;42341;40.498;72.818;2023-02-04T04:49:00;14.50;92.90
42877;DHT22;42341;40.498;72.818;2023-02-04T04:51:26;15.60;90.70
42877;DHT22;42341;40.498;72.818;2023-02-04T04:53:52;15.50;85.10
42877;DHT22;42341;40.498;72.818;2023-02-04T04:56:18;15.20;85.00
42877;DHT22;42341;40.498;72.818;2023-02-04T04:58:44;15.30;80.50
42877;DHT22;42341;40.498;72.818;2023-02-04T05:01:10;17.40;77.50
42877;DHT22;42341;40.498;72.818;2023-02-04T05:03:35;18.60;74.10
42877;DHT22;42341;40.498;72.818;2023-02-04T05:06:01;20.20;71.70
42877;DHT22;42341;40.498;72.818;2023-02-04T05:08:27;20.00;68.30
42877;DHT22;42341;40.498;72.818;2023-02-04T05:10:53;19.50;66.30
42877;DHT22;42341;40.498;72.818;2023-02-04T05:13:19;17.90;66.00
42877;DHT22;42341;40.498;72.818;2023-02-04T05:15:45;16.40;68.40
42877;DHT22;42341;40.498;72.818;2023-02-04T05:18:11;15.40;70.20
42877;DHT22;42341;40.498;72.818;2023-02-04T05:20:36;14.60;71.90
42877;DHT22;42341;40.498;72.818;2023-02-04T05:23:02;14.40;73.00
42877;DHT22;42341;40.498;72.818;2023-02-04T05:25:28;15.10;72.80
42877;DHT22;42341;40.498;72.818;2023-02-04T05:27:54;14.60;72.90
42877;DHT22;42341;40.498;72.818;2023-02-04T05:30:20;14.50;72.70
42877;DHT22;42341;40.498;72.818;2023-02-04T05:32:46;15.40;73.60
42877;DHT22;42341;40.498;72.818;2023-02-04T05:35:12;16.70;70.60
42877;DHT22;42341;40.498;72.818;2023-02-04T05:37:38;16.20;70.50
42877;DHT22;42341;40.498;72.818;2023-02-04T05:40:05;16.10;69.50
42877;DHT22;42341;40.498;72.818;2023-02-04T05:42:31;15.50;69.40
42877;DHT22;42341;40.498;72.818;2023-02-04T05:44:57;14.80;70.20
42877;DHT22;42341;40.498;72.818;2023-02-04T05:47:23;16.80;70.40
42877;DHT22;42341;40.498;72.818;2023-02-04T05:49:50;21.60;64.90
42877;DHT22;42341;40.498;72.818;2023-02-04T05:52:16;18.90;62.80
42877;DHT22;42341;40.498;72.818;2023-02-04T05:54:42;17.60;64.20
42877;DHT22;42341;40.498;72.818;2023-02-04T05:57:08;20.80;65.50
42877;DHT22;42341;40.498;72.818;2023-02-04T05:59:34;21.20;59.90
42877;DHT22;42341;40.498;72.818;2023-02-04T06:02:00;19.20;61.20
42877;DHT22;42341;40.498;72.818;2023-02-04T06:04:26;18.20;61.00
42877;DHT22;42341;40.498;72.818;2023-02-04T06:06:51;23.30;58.50
42877;DHT22;42341;40.498;72.818;2023-02-04T06:09:17;25.10;54.30
42877;DHT22;42341;40.498;72.818;2023-02-04T06:11:43;28.10;51.60
42877;DHT22;42341;40.498;72.818;2023-02-04T06:14:09;30.10;46.10
42877;DHT22;42341;40.498;72.818;2023-02-04T06:16:35;28.20;45.00
42877;DHT22;42341;40.498;72.818;2023-02-04T06:19:01;27.50;44.10
42877;DHT22;42341;40.498;72.818;2023-02-04T06:21:27;30.50;43.00
42877;DHT22;42341;40.498;72.818;2023-02-04T06:23:53;29.20;41.60
42877;DHT22;42341;40.498;72.818;2023-02-04T06:26:19;30.20;42.30
42877;DHT22;42341;40.498;72.818;2023-02-04T06:28:45;32.90;41.00
42877;DHT22;42341;40.498;72.818;2023-02-04T06:31:11;32.60;38.90
42877;DHT22;42341;40.498;72.818;2023-02-04T06:33:37;30.30;40.30
42877;DHT22;42341;40.498;72.818;2023-02-04T06:36:03;29.20;40.00
42877;DHT22;42341;40.498;72.818;2023-02-04T06:38:29;28.60;40.60
42877;DHT22;42341;40.498;72.818;2023-02-04T06:40:55;27.90;39.90
42877;DHT22;42341;40.498;72.818;2023-02-04T06:43:21;27.80;43.00
42877;DHT22;42341;40.498;72.818;2023-02-04T06:45:50;29.90;43.50
42877;DHT22;42341;40.498;72.818;2023-02-04T06:48:17;31.70;42.70
42877;DHT22;42341;40.498;72.818;2023-02-04T06:50:43;31.90;40.50
42877;DHT22;42341;40.498;72.818;2023-02-04T06:53:09;26.40;43.30
42877;DHT22;42341;40.498;72.818;2023-02-04T06:55:35;22.70;48.40
42877;DHT22;42341;40.498;72.818;2023-02-04T06:58:01;21.60;51.80
42877;DHT22;42341;40.498;72.818;2023-02-04T07:00:27;21.70;50.60
42877;DHT22;42341;40.498;72.818;2023-02-04T07:02:55;21.80;52.10
42877;DHT22;42341;40.498;72.818;2023-02-04T07:05:23;25.00;45.90
42877;DHT22;42341;40.498;72.818;2023-02-04T07:07:49;21.40;49.00
42877;DHT22;42341;40.498;72.818;2023-02-04T07:10:16;22.40;49.90
42877;DHT22;42341;40.498;72.818;2023-02-04T07:12:42;26.10;45.30
42877;DHT22;42341;40.498;72.818;2023-02-04T07:15:08;26.30;45.30
42877;DHT22;42341;40.498;72.818;2023-02-04T07:17:34;26.80;44.40
42877;DHT22;42341;40.498;72.818;2023-02-04T07:20:00;27.30;43.90
42877;DHT22;42341;40.498;72.818;2023-02-04T07:22:26;23.40;45.10
42877;DHT22;42341;40.498;72.818;2023-02-04T07:24:52;20.50;50.00
42877;DHT22;42341;40.498;72.818;2023-02-04T07:27:18;19.00;53.10
42877;DHT22;42341;40.498;72.818;2023-02-04T07:29:44;17.80;55.20
42877;DHT22;42341;40.498;72.818;2023-02-04T07:32:09;16.50;57.20
42877;DHT22;42341;40.498;72.818;2023-02-04T07:34:35;16.00;59.20
42877;DHT22;42341;40.498;72.818;2023-02-04T07:37:01;15.60;59.00
42877;DHT22;42341;40.498;72.818;2023-02-04T07:39:27;15.10;60.80
42877;DHT22;42341;40.498;72.818;2023-02-04T07:41:53;14.70;62.20
42877;DHT22;42341;40.498;72.818;2023-02-04T07:44:19;14.30;62.60
42877;DHT22;42341;40.498;72.818;2023-02-04T07:46:46;14.00;64.50
42877;DHT22;42341;40.498;72.818;2023-02-04T07:49:12;13.90;65.70
42877;DHT22;42341;40.498;72.818;2023-02-04T07:51:38;13.70;66.00
42877;DHT22;42341;40.498;72.818;2023-02-04T07:54:04;13.30;66.30
42877;DHT22;42341;40.498;72.818;2023-02-04T07:56:30;13.10;67.60
42877;DHT22;42341;40.498;72.818;2023-02-04T07:58:55;13.00;68.30
42877;DHT22;42341;40.498;72.818;2023-02-04T08:01:21;12.80;67.40
42877;DHT22;42341;40.498;72.818;2023-02-04T08:03:47;12.70;68.30
42877;DHT22;42341;40.498;72.818;2023-02-04T08:06:13;12.80;69.20
42877;DHT22;42341;40.498;72.818;2023-02-04T08:08:39;12.80;68.90
42877;DHT22;42341;40.498;72.818;2023-02-04T08:11:05;12.70;69.40
42877;DHT22;42341;40.498;72.818;2023-02-04T08:13:31;12.60;70.50
42877;DHT22;42341;40.498;72.818;2023-02-04T08:15:57;12.60;70.50
42877;DHT22;42341;40.498;72.818;2023-02-04T08:18:23;12.70;70.50
42877;DHT22;42341;40.498;72.818;2023-02-04T08:20:50;12.40;71.50
42877;DHT22;42341;40.498;72.818;2023-02-04T08:23:16;12.50;72.30
42877;DHT22;42341;40.498;72.818;2023-02-04T08:25:41;12.70;71.60
42877;DHT22;42341;40.498;72.818;2023-02-04T08:28:10;12.60;71.10
42877;DHT22;42341;40.498;72.818;2023-02-04T08:30:36;12.40;74.00
42877;DHT22;42341;40.498;72.818;2023-02-04T08:33:01;12.30;76.50
42877;DHT22;42341;40.498;72.818;2023-02-04T08:35:27;12.30;77.50
42877;DHT22;42341;40.498;72.818;2023-02-04T08:37:53;12.30;79.60
42877;DHT22;42341;40.498;72.818;2023-02-04T08:40:19;12.20;80.40
42877;DHT22;42341;40.498;72.818;2023-02-04T08:42:45;12.10;81.50
42877;DHT22;42341;40.498;72.818;2023-02-04T08:45:11;12.00;81.80
42877;DHT22;42341;40.498;72.818;2023-02-04T08:47:37;12.10;83.20
42877;DHT22;42341;40.498;72.818;2023-02-04T08:50:03;11.90;84.10
42877;DHT22;42341;40.498;72.818;2023-02-04T08:52:29;11.80;85.30
42877;DHT22;42341;40.498;72.818;2023-02-04T08:54:55;11.70;85.70
42877;DHT22;42341;40.498;72.818;2023-02-04T08:57:21;11.60;86.20
42877;DHT22;42341;40.498;72.818;2023-02-04T08:59:47;11.80;85.80
42877;DHT22;42341;40.498;72.818;2023-02-04T09:02:12;11.80;85.80
42877;DHT22;42341;40.498;72.818;2023-02-04T09:04:38;11.80;84.50
42877;DHT22;42341;40.498;72.818;2023-02-04T09:07:04;11.90;84.90
42877;DHT22;42341;40.498;72.818;2023-02-04T09:09:30;11.80;83.00
42877;DHT22;42341;40.498;72.818;2023-02-04T09:11:56;11.80;83.50
42877;DHT22;42341;40.498;72.818;2023-02-04T09:14:22;11.80;84.30
42877;DHT22;42341;40.498;72.818;2023-02-04T09:16:48;11.80;82.90
42877;DHT22;42341;40.498;72.818;2023-02-04T09:19:14;11.80;83.60
42877;DHT22;42341;40.498;72.818;2023-02-04T09:21:41;11.80;84.90
42877;DHT22;42341;40.498;72.818;2023-02-04T09:24:07;11.90;85.60
42877;DHT22;42341;40.498;72.818;2023-02-04T09:26:33;11.90;85.00
42877;DHT22;42341;40.498;72.818;2023-02-04T09:28:59;11.90;84.80
42877;DHT22;42341;40.498;72.818;2023-02-04T09:31:27;11.90;83.60
42877;DHT22;42341;40.498;72.818;2023-02-04T09:33:52;12.00;82.50
42877;DHT22;42341;40.498;72.818;2023-02-04T09:36:18;11.90;83.90
42877;DHT22;42341;40.498;72.818;2023-02-04T09:38:45;11.90;84.10
42877;DHT22;42341;40.498;72.818;2023-02-04T09:41:11;11.90;83.20
42877;DHT22;42341;40.498;72.818;2023-02-04T09:43:40;11.90;81.60
42877;DHT22;42341;40.498;72.818;2023-02-04T09:46:21;11.90;81.80
42877;DHT22;42341;40.498;72.818;2023-02-04T09:48:48;11.90;83.60
42877;DHT22;42341;40.498;72.818;2023-02-04T09:51:24;11.70;83.30
42877;DHT22;42341;40.498;72.818;2023-02-04T09:53:52;11.60;82.30
42877;DHT22;42341;40.498;72.818;2023-02-04T09:56:19;11.60;81.70
42877;DHT22;42341;40.498;72.818;2023-02-04T09:58:45;11.50;80.50
42877;DHT22;42341;40.498;72.818;2023-02-04T10:01:16;11.60;81.10
42877;DHT22;42341;40.498;72.818;2023-02-04T10:03:44;11.40;79.60
42877;DHT22;42341;40.498;72.818;2023-02-04T10:06:20;11.50;79.10
42877;DHT22;42341;40.498;72.818;2023-02-04T10:08:47;11.50;80.10
42877;DHT22;42341;40.498;72.818;2023-02-04T10:11:14;11.40;79.70
42877;DHT22;42341;40.498;72.818;2023-02-04T10:13:43;11.40;80.10
42877;DHT22;42341;40.498;72.818;2023-02-04T10:16:31;11.20;82.30
42877;DHT22;42341;40.498;72.818;2023-02-04T10:19:05;11.10;83.90
42877;DHT22;42341;40.498;72.818;2023-02-04T10:21:33;11.20;84.50
42877;DHT22;42341;40.498;72.818;2023-02-04T10:24:09;11.20;83.60
42877;DHT22;42341;40.498;72.818;2023-02-04T10:26:37;11.20;82.80
42877;DHT22;42341;40.498;72.818;2023-02-04T10:29:11;11.20;81.80
42877;DHT22;42341;40.498;72.818;2023-02-04T10:31:40;11.30;82.00
42877;DHT22;42341;40.498;72.818;2023-02-04T10:36:37;11.10;82.20
42877;DHT22;42341;40.498;72.818;2023-02-04T10:39:18;11.10;82.80
42877;DHT22;42341;40.498;72.818;2023-02-04T10:41:52;11.00;83.50
42877;DHT22;42341;40.498;72.818;2023-02-04T10:44:25;11.00;83.10
42877;DHT22;42341;40.498;72.818;2023-02-04T10:47:01;11.00;83.10
42877;DHT22;42341;40.498;72.818;2023-02-04T10:49:28;11.00;82.90
42877;DHT22;42341;40.498;72.818;2023-02-04T10:51:54;10.90;82.90
42877;DHT22;42341;40.498;72.818;2023-02-04T10:54:24;10.90;82.30
42877;DHT22;42341;40.498;72.818;2023-02-04T10:57:22;10.80;83.30
42877;DHT22;42341;40.498;72.818;2023-02-04T10:59:50;10.80;84.00
42877;DHT22;42341;40.498;72.818;2023-02-04T11:02:42;10.80;84.10
42877;DHT22;42341;40.498;72.818;2023-02-04T11:07:38;10.80;83.80
42877;DHT22;42341;40.498;72.818;2023-02-04T11:10:04;10.70;83.80
42877;DHT22;42341;40.498;72.818;2023-02-04T11:15:32;10.70;83.30
42877;DHT22;42341;40.498;72.818;2023-02-04T11:18:02;10.70;83.70
42877;DHT22;42341;40.498;72.818;2023-02-04T11:20:33;10.60;84.20
42877;DHT22;42341;40.498;72.818;2023-02-04T11:25:40;10.50;85.00
42877;DHT22;42341;40.498;72.818;2023-02-04T11:28:24;10.40;85.50
42877;DHT22;42341;40.498;72.818;2023-02-04T11:31:12;10.50;84.30
42877;DHT22;42341;40.498;72.818;2023-02-04T11:33:41;10.40;83.90
42877;DHT22;42341;40.498;72.818;2023-02-04T11:36:09;10.40;83.00
42877;DHT22;42341;40.498;72.818;2023-02-04T11:38:36;10.40;82.70
42877;DHT22;42341;40.498;72.818;2023-02-04T11:41:03;10.30;82.90
42877;DHT22;42341;40.498;72.818;2023-02-04T11:43:34;10.10;84.00
42877;DHT22;42341;40.498;72.818;2023-02-04T11:46:09;10.00;84.70
42877;DHT22;42341;40.498;72.818;2023-02-04T11:48:37;9.90;85.40
42877;DHT22;42341;40.498;72.818;2023-02-04T11:51:16;9.80;86.10
42877;DHT22;42341;40.498;72.818;2023-02-04T11:53:42;9.80;87.20
42877;DHT22;42341;40.498;72.818;2023-02-04T11:56:16;9.80;88.20
42877;DHT22;42341;40.498;72.818;2023-02-04T11:58:43;9.70;89.10
42877;DHT22;42341;40.498;72.818;2023-02-04T12:01:24;9.60;89.80
42877;DHT22;42341;40.498;72.818;2023-02-04T12:03:56;9.60;90.20
42877;DHT22;42341;40.498;72.818;2023-02-04T12:06:31;9.40;90.40
42877;DHT22;42341;40.498;72.818;2023-02-04T12:09:23;9.40;90.50
42877;DHT22;42341;40.498;72.818;2023-02-04T12:12:08;9.30;91.10
42877;DHT22;42341;40.498;72.818;2023-02-04T12:14:36;9.20;91.70
42877;DHT22;42341;40.498;72.818;2023-02-04T12:17:18;9.20;91.90
42877;DHT22;42341;40.498;72.818;2023-02-04T12:19:45;9.00;92.50
42877;DHT22;42341;40.498;72.818;2023-02-04T12:22:11;8.90;92.90
42877;DHT22;42341;40.498;72.818;2023-02-04T12:24:39;8.70;92.70
42877;DHT22;42341;40.498;72.818;2023-02-04T12:27:04;8.60;93.00
42877;DHT22;42341;40.498;72.818;2023-02-04T12:29:30;8.60;93.40
42877;DHT22;42341;40.498;72.818;2023-02-04T12:31:56;8.50;93.80
42877;DHT22;42341;40.498;72.818;2023-02-04T12:34:22;8.50;94.50
42877;DHT22;42341;40.498;72.818;2023-02-04T12:36:49;8.40;94.70
42877;DHT22;42341;40.498;72.818;2023-02-04T12:39:15;8.30;94.80
42877;DHT22;42341;40.498;72.818;2023-02-04T12:41:41;8.10;94.70
42877;DHT22;42341;40.498;72.818;2023-02-04T12:44:06;8.00;95.20
42877;DHT22;42341;40.498;72.818;2023-02-04T12:46:33;7.80;95.50
42877;DHT22;42341;40.498;72.818;2023-02-04T12:48:59;7.70;96.00
42877;DHT22;42341;40.498;72.818;2023-02-04T12:51:24;7.70;96.20
42877;DHT22;42341;40.498;72.818;2023-02-04T12:53:50;7.70;96.60
42877;DHT22;42341;40.498;72.818;2023-02-04T12:56:17;7.70;96.90
42877;DHT22;42341;40.498;72.818;2023-02-04T12:58:45;7.60;96.90
42877;DHT22;42341;40.498;72.818;2023-02-04T13:01:11;7.50;96.90
42877;DHT22;42341;40.498;72.818;2023-02-04T13:03:37;7.40;97.30
42877;DHT22;42341;40.498;72.818;2023-02-04T13:06:03;7.40;97.60
42877;DHT22;42341;40.498;72.818;2023-02-04T13:08:29;7.30;97.50
42877;DHT22;42341;40.498;72.818;2023-02-04T13:10:55;7.30;98.00
42877;DHT22;42341;40.498;72.818;2023-02-04T13:13:21;7.20;98.10
42877;DHT22;42341;40.498;72.818;2023-02-04T13:15:47;7.20;98.30
42877;DHT22;42341;40.498;72.818;2023-02-04T13:18:14;7.20;98.30
42877;DHT22;42341;40.498;72.818;2023-02-04T13:20:40;7.10;98.30
42877;DHT22;42341;40.498;72.818;2023-02-04T13:23:07;7.00;98.40
42877;DHT22;42341;40.498;72.818;2023-02-04T13:25:33;7.00;98.50
42877;DHT22;42341;40.498;72.818;2023-02-04T13:27:59;7.10;98.50
42877;DHT22;42341;40.498;72.818;2023-02-04T13:30:25;7.20;98.00
42877;DHT22;42341;40.498;72.818;2023-02-04T13:32:51;7.30;97.80
42877;DHT22;42341;40.498;72.818;2023-02-04T13:35:17;7.40;97.50
42877;DHT22;42341;40.498;72.818;2023-02-04T13:37:44;7.50;97.20
42877;DHT22;42341;40.498;72.818;2023-02-04T13:40:10;7.50;97.00
42877;DHT22;42341;40.498;72.818;2023-02-04T13:42:36;7.50;97.10
42877;DHT22;42341;40.498;72.818;2023-02-04T13:45:02;7.40;97.30
42877;DHT22;42341;40.498;72.818;2023-02-04T13:47:29;7.40;97.30
42877;DHT22;42341;40.498;72.818;2023-02-04T13:49:55;7.40;97.30
42877;DHT22;42341;40.498;72.818;2023-02-04T13:52:21;7.30;97.20
42877;DHT22;42341;40.498;72.818;2023-02-04T13:54:47;7.30;97.10
42877;DHT22;42341;40.498;72.818;2023-02-04T13:57:13;7.30;97.10
42877;DHT22;42341;40.498;72.818;2023-02-04T13:59:38;7.20;97.20
42877;DHT22;42341;40.498;72.818;2023-02-04T14:02:04;7.20;97.20
42877;DHT22;42341;40.498;72.818;2023-02-04T14:04:30;7.00;97.40
42877;DHT22;42341;40.498;72.818;2023-02-04T14:06:56;7.00;97.40
42877;DHT22;42341;40.498;72.818;2023-02-04T14:09:22;7.10;97.30
42877;DHT22;42341;40.498;72.818;2023-02-04T14:11:49;7.10;97.30
42877;DHT22;42341;40.498;72.818;2023-02-04T14:14:16;7.00;97.50
42877;DHT22;42341;40.498;72.818;2023-02-04T14:16:42;7.00;97.50
42877;DHT22;42341;40.498;72.818;2023-02-04T14:19:08;6.90;97.50
42877;DHT22;42341;40.498;72.818;2023-02-04T14:21:34;6.90;97.50
42877;DHT22;42341;40.498;72.818;2023-02-04T14:24:00;6.90;97.40
42877;DHT22;42341;40.498;72.818;2023-02-04T14:26:26;6.90;97.30
42877;DHT22;42341;40.498;72.818;2023-02-04T14:28:52;7.00;97.30
42877;DHT22;42341;40.498;72.818;2023-02-04T14:31:19;7.00;97.00
42877;DHT22;42341;40.498;72.818;2023-02-04T14:33:45;6.80;97.10
42877;DHT22;42341;40.498;72.818;2023-02-04T14:36:11;6.80;97.50
42877;DHT22;42341;40.498;72.818;2023-02-04T14:38:37;6.80;97.30
42877;DHT22;42341;40.498;72.818;2023-02-04T14:41:04;6.80;97.20
42877;DHT22;42341;40.498;72.818;2023-02-04T14:43:30;6.70;97.20
42877;DHT22;42341;40.498;72.818;2023-02-04T14:46:02;6.70;97.30
42877;DHT22;42341;40.498;72.818;2023-02-04T14:48:29;6.70;97.40
42877;DHT22;42341;40.498;72.818;2023-02-04T14:50:55;6.80;97.10
42877;DHT22;42341;40.498;72.818;2023-02-04T14:53:21;6.70;97.00
42877;DHT22;42341;40.498;72.818;2023-02-04T14:55:46;6.70;96.90
42877;DHT22;42341;40.498;72.818;2023-02-04T14:58:12;6.60;97.00
42877;DHT22;42341;40.498;72.818;2023-02-04T15:00:38;6.70;97.10
42877;DHT22;42341;40.498;72.818;2023-02-04T15:03:04;6.70;96.80
42877;DHT22;42341;40.498;72.818;2023-02-04T15:05:30;6.70;96.60
42877;DHT22;42341;40.498;72.818;2023-02-04T15:07:56;6.60;96.60
42877;DHT22;42341;40.498;72.818;2023-02-04T15:10:22;6.60;96.40
42877;DHT22;42341;40.498;72.818;2023-02-04T15:12:49;6.60;96.30
42877;DHT22;42341;40.498;72.818;2023-02-04T15:15:16;6.60;96.20
42877;DHT22;42341;40.498;72.818;2023-02-04T15:17:42;6.60;96.30
42877;DHT22;42341;40.498;72.818;2023-02-04T15:20:08;6.50;96.40
42877;DHT22;42341;40.498;72.818;2023-02-04T15:22:34;6.50;96.30
42877;DHT22;42341;40.498;72.818;2023-02-04T15:25:00;6.60;96.20
42877;DHT22;42341;40.498;72.818;2023-02-04T15:27:26;6.60;95.90
42877;DHT22;42341;40.498;72.818;2023-02-04T15:29:52;6.60;95.90
42877;DHT22;42341;40.498;72.818;2023-02-04T15:32:18;6.60;95.70
42877;DHT22;42341;40.498;72.818;2023-02-04T15:34:44;6.60;95.60
42877;DHT22;42341;40.498;72.818;2023-02-04T15:37:10;6.60;95.60